East Kilbride, United Kingdom
Current Conditions -  °F | °C
As of 5:20 PM on Sunday 21 Dec 2014 (Local Time) from EGPF Reporting Station
Moderate Rain Moderate Rain  
Wind Chill: 52°   Ceiling: 500
Heat Index: 52°   Visibility: 2.4mi
Dew Point: 50°   Wind: 18mph
Humidity: 94%   Direction: 230°SW
Pressure: 29.68"   Gusts: NA
Location:  55.77°N, 4.18°W
Report Text: EGPF 211720Z AUTO 23016KT 3900 RA BKN005/// BKN013/// //////CB 11/10 Q1005 RERA
Loading
Personal Weather Stations






























Interactive Weather Map New forecast layout! Learn more

10-Day Weather Forecast

Advertisements
Track Severe Weather on mobile